Airfield :
LOGIN :

Register | Disclaimer

   EN    FR    IT 

 










Legend :    VFR   Marginal VFR   IFR   Intensive IFR   Very Intensive IFR
Visi :
Ceiling :
>= 8 km
>= 3000ft
5 to 8 km
1000 to 3000 ft
1500m to 5 km
500 to 1000 ft
800 to 1500m
200 to 500 ft
< 800m
< 200 ft
Symbols :   Thunderstorms  Fog  Heavy snow  Heavy precipitations  Wind > 20 kt
SIGMETs :     Misc.  Thunderstorms  Icing  Turbulence  Mountain Waves  Volcanic Ashes






- Airport Elevation : 1213 ft
- IATA code : SCQ


LEST - Santiago de Compostela

CURRENT METAR :
  • 270700Z 26005KT 200V310 9999 FEW008 SCT045 09/08 Q1016 NOSIG

EXPIRED METARs :
  • 270630Z 27006KT 230V320 9999 FEW015 SCT035 09/08 Q1015 TEMPO 3000 RA BKN010
  • 270600Z 28007KT 250V320 9999 FEW010 BKN030 BKN045 09/09 Q1015 TEMPO 3000 RA BKN010
  • 270530Z 29006KT 250V340 9999 -RA SCT006 BKN013 BKN021 09/09 Q1015 TEMPO 1500 BKN004
  • 270500Z 29006KT 240V340 8000 -RA SCT005 SCT011 BKN018 09/09 Q1015 RERA TEMPO 1500 BKN004
  • 270430Z 28007KT 220V330 8000 +RA SCT001 OVC010 10/10 Q1016 TEMPO 1500 BKN004

TAF TAF LEST
Valid from the 27 at 06:00 until the 28 at 06:00 UTC


270500Z 2706/2806 21012KT 6000 SCT010 BKN018 TX09/2706Z TN08/2800Z
TEMPO 2706/2806 22016G28KT 3000 -RA BR BKN010
TEMPO 2706/2710 1500 RA BKN005
PROB40
TEMPO 2706/2708 27010KT 0350 FG VV001
TEMPO 2718/2724 27015G25KT 1500 RA SHRA BKN005 SCT020TCU



MET'MAP, your aeronautical weather chart ! - Copyright ORBIFLY December 2007 - Disclaimer

ORBIFLY MET'MAP TEAM :

Programming & Development : Alexandra Zaïnal
Concept & original design : Baudouin d'Aumeries
Assistance for programming : Marc-Olivier Méhu
Technical & hardware support : Manuel Goepfert

Contact : metmap@orbifly.com




SOURCES & CREDITS :

   NOAA